createdAt,value
2022-08-17T00:01:51.398Z,15.35
2022-08-17T00:07:22.016Z,7.10
2022-08-17T00:10:11.983Z,6.68
2022-08-17T00:13:00.027Z,8.43
2022-08-17T00:15:40.816Z,7.32
2022-08-17T00:19:06.830Z,9.50
2022-08-17T00:22:10.612Z,11.23
2022-08-17T00:24:40.009Z,5.68
2022-08-17T00:27:22.804Z,8.38
2022-08-17T00:30:06.535Z,9.55
2022-08-17T00:33:13.691Z,8.43
2022-08-17T00:35:59.929Z,5.28
2022-08-17T00:38:48.783Z,10.73
2022-08-17T00:41:36.987Z,6.00
2022-08-17T00:44:24.741Z,12.70
2022-08-17T00:47:17.765Z,10.02
2022-08-17T00:49:58.972Z,10.05
2022-08-17T00:52:53.744Z,10.05
2022-08-17T00:55:35.942Z,7.85
2022-08-17T00:58:30.441Z,9.85
2022-08-17T01:01:26.783Z,13.63
2022-08-17T01:04:15.928Z,9.27
2022-08-17T01:06:58.795Z,10.88
2022-08-17T01:09:47.755Z,12.73
2022-08-17T01:12:43.795Z,10.82
2022-08-17T01:15:32.711Z,10.20
2022-08-17T01:18:17.925Z,9.77
2022-08-17T01:21:14.790Z,13.27
2022-08-17T01:23:57.898Z,17.25
2022-08-17T01:26:47.726Z,16.48
2022-08-17T01:29:30.930Z,24.73
2022-08-17T01:32:19.683Z,11.15
2022-08-17T01:35:01.880Z,11.55
2022-08-17T01:37:50.684Z,10.88
2022-08-17T01:40:40.862Z,14.32
2022-08-17T01:43:32.688Z,13.68
2022-08-17T01:46:13.861Z,14.77
2022-08-17T01:49:03.650Z,9.70
2022-08-17T01:51:45.885Z,10.13
2022-08-17T01:54:34.671Z,7.68
2022-08-17T01:57:17.874Z,14.02
2022-08-17T02:00:06.631Z,12.90
2022-08-17T02:02:48.942Z,14.38
2022-08-17T02:05:36.759Z,11.30
2022-08-17T02:08:20.173Z,16.02
2022-08-17T02:11:11.405Z,15.60
2022-08-17T02:14:02.496Z,10.85
2022-08-17T02:16:51.629Z,12.13
2022-08-17T02:19:32.856Z,16.38
2022-08-17T02:22:20.643Z,19.52
2022-08-17T02:25:10.613Z,16.70
2022-08-17T02:27:58.806Z,11.57
2022-08-17T02:31:01.127Z,14.25
2022-08-17T02:34:00.586Z,16.83
2022-08-17T02:36:46.595Z,15.15
2022-08-17T02:39:34.579Z,12.15
2022-08-17T02:42:23.596Z,13.95
2022-08-17T02:45:14.789Z,9.95
2022-08-17T02:47:58.734Z,10.85
2022-08-17T02:50:46.791Z,7.50
2022-08-17T02:53:27.567Z,11.75
2022-08-17T02:56:21.579Z,9.60
2022-08-17T02:59:02.796Z,13.07
2022-08-17T03:01:50.662Z,15.98
2022-08-17T03:04:34.881Z,11.82
2022-08-17T03:07:24.540Z,12.50
2022-08-17T03:10:12.537Z,12.18
2022-08-17T03:13:08.576Z,13.45
2022-08-17T03:15:57.559Z,10.80
2022-08-17T03:18:38.754Z,12.77
2022-08-17T03:21:28.762Z,12.20
2022-08-17T03:24:10.395Z,11.45
2022-08-17T03:26:58.511Z,10.23
2022-08-17T03:29:39.823Z,9.48
2022-08-17T03:32:28.640Z,16.58
2022-08-17T03:35:09.726Z,9.75
2022-08-17T03:38:02.516Z,17.38
2022-08-17T03:40:58.439Z,12.93
2022-08-17T03:43:47.492Z,13.82
2022-08-17T03:46:52.547Z,19.75
2022-08-17T03:49:51.714Z,15.23
2022-08-17T03:52:56.599Z,10.40
2022-08-17T03:56:05.503Z,12.68
2022-08-17T03:58:46.486Z,16.50
2022-08-17T04:01:34.758Z,16.20
2022-08-17T04:04:15.478Z,16.77
2022-08-17T04:07:03.668Z,12.75
2022-08-17T04:09:44.476Z,14.70
2022-08-17T04:12:42.422Z,16.75
2022-08-17T04:15:30.447Z,17.65
2022-08-17T04:18:11.654Z,16.92
2022-08-17T04:20:59.456Z,19.25
2022-08-17T04:23:40.640Z,16.63
2022-08-17T04:26:52.457Z,26.42
2022-08-17T04:29:54.410Z,12.20
2022-08-17T04:33:03.837Z,17.05
2022-08-17T04:35:45.668Z,14.32
2022-08-17T04:38:37.413Z,16.40
2022-08-17T04:41:44.414Z,21.83
2022-08-17T04:44:37.695Z,15.23
2022-08-17T04:47:19.608Z,21.77
2022-08-17T04:50:09.402Z,17.25
2022-08-17T04:52:53.719Z,21.90
2022-08-17T04:55:41.394Z,26.30
2022-08-17T04:58:22.579Z,16.55
2022-08-17T05:01:12.484Z,16.83
2022-08-17T05:03:53.590Z,26.73
2022-08-17T05:06:41.380Z,25.45
2022-08-17T05:09:30.404Z,14.48
2022-08-17T05:12:18.616Z,13.35
2022-08-17T05:14:59.446Z,20.58
2022-08-17T05:17:48.566Z,27.23
2022-08-17T05:20:31.351Z,28.50
2022-08-17T05:23:23.345Z,18.05
2022-08-17T05:26:04.666Z,16.10
2022-08-17T05:28:56.953Z,32.72
2022-08-17T05:31:46.376Z,13.73
2022-08-17T05:34:36.678Z,17.65
2022-08-17T05:37:17.342Z,18.50
2022-08-17T05:40:05.374Z,28.73
2022-08-17T05:42:46.616Z,10.50
2022-08-17T05:45:54.916Z,25.23
2022-08-17T05:48:40.094Z,16.67
2022-08-17T05:51:39.314Z,25.52
2022-08-17T05:54:43.308Z,24.98
2022-08-17T05:57:53.524Z,32.95
2022-08-17T06:00:39.318Z,36.28
2022-08-17T06:03:49.276Z,34.92
2022-08-17T06:06:44.873Z,31.15
2022-08-17T06:09:43.274Z,52.35
2022-08-17T06:12:51.439Z,25.70
2022-08-17T06:15:49.287Z,42.20
2022-08-17T06:18:33.496Z,29.70
2022-08-17T06:21:26.312Z,26.98
2022-08-17T06:24:22.467Z,16.80
2022-08-17T06:27:16.281Z,23.70
2022-08-17T06:30:05.504Z,36.75
2022-08-17T06:32:59.270Z,43.50
2022-08-17T06:35:54.233Z,44.03
2022-08-17T06:39:00.254Z,50.47
2022-08-17T06:42:01.250Z,39.17
2022-08-17T06:44:51.304Z,72.65
2022-08-17T06:47:45.227Z,26.20
2022-08-17T06:50:35.133Z,41.60
2022-08-17T06:53:31.226Z,47.03
2022-08-17T06:56:22.323Z,20.00
2022-08-17T06:59:13.410Z,20.23
2022-08-17T07:01:56.217Z,28.50
2022-08-17T07:04:38.478Z,20.05
2022-08-17T07:07:45.195Z,19.80
2022-08-17T07:10:28.876Z,21.85
2022-08-17T07:13:28.218Z,21.70
2022-08-17T07:16:20.424Z,20.10
2022-08-17T07:19:11.325Z,18.75
2022-08-17T07:21:58.757Z,16.85
2022-08-17T07:24:51.187Z,16.92
2022-08-17T07:27:44.494Z,16.25
2022-08-17T07:30:45.528Z,15.02
2022-08-17T07:33:41.016Z,16.23
2022-08-17T07:36:33.166Z,14.77
2022-08-17T07:39:28.136Z,13.70
2022-08-17T07:42:18.158Z,15.15
2022-08-17T07:45:26.157Z,15.48
2022-08-17T07:48:28.179Z,19.60
2022-08-17T07:51:32.238Z,16.17
2022-08-17T07:54:31.318Z,14.50
2022-08-17T07:57:38.141Z,15.15
2022-08-17T08:00:33.142Z,14.25
2022-08-17T08:03:32.077Z,14.95
2022-08-17T08:06:29.253Z,13.18
2022-08-17T08:09:30.573Z,14.63
2022-08-17T08:12:40.145Z,16.60
2022-08-17T08:15:25.693Z,15.30
2022-08-17T08:18:16.095Z,14.65
2022-08-17T08:21:24.985Z,16.08
2022-08-17T08:24:23.178Z,16.98
2022-08-17T08:27:21.325Z,16.95
2022-08-17T08:30:12.095Z,16.20
2022-08-17T08:33:32.444Z,15.40
2022-08-17T08:36:56.928Z,15.98
2022-08-17T08:39:54.661Z,19.83
2022-08-17T08:42:45.262Z,13.68
2022-08-17T08:45:40.274Z,18.27
2022-08-17T08:48:56.895Z,15.82
2022-08-17T08:51:51.763Z,14.68
2022-08-17T08:54:51.046Z,16.38
2022-08-17T08:57:39.564Z,14.23
2022-08-17T09:00:32.046Z,16.48
2022-08-17T09:03:51.539Z,15.68
2022-08-17T09:06:52.494Z,12.70
2022-08-17T09:09:50.074Z,10.05
2022-08-17T09:12:56.014Z,11.55
2022-08-17T09:15:50.031Z,9.25
2022-08-17T09:19:00.179Z,12.32
2022-08-17T09:21:49.042Z,11.73
2022-08-17T09:24:36.208Z,9.50
2022-08-17T09:27:28.016Z,10.82
2022-08-17T09:33:06.043Z,12.30
2022-08-17T09:35:52.217Z,14.57
2022-08-17T09:38:48.006Z,12.73
2022-08-17T09:41:36.189Z,14.05
2022-08-17T09:44:34.118Z,14.52
2022-08-17T09:47:23.180Z,17.45
2022-08-17T09:50:18.175Z,14.73
2022-08-17T09:53:20.214Z,17.27
2022-08-17T09:56:25.047Z,15.98
2022-08-17T09:59:24.193Z,18.90
2022-08-17T10:02:33.957Z,17.83
2022-08-17T10:05:21.553Z,18.20
2022-08-17T10:08:17.073Z,18.15
2022-08-17T10:11:12.157Z,16.33
2022-08-17T10:14:37.583Z,17.67
2022-08-17T10:17:28.372Z,19.38
2022-08-17T10:20:19.947Z,26.95
2022-08-17T10:23:24.349Z,20.23
2022-08-17T10:26:20.948Z,18.33
2022-08-17T10:29:12.835Z,23.30
2022-08-17T10:32:06.039Z,19.02
2022-08-17T10:35:16.114Z,21.33
2022-08-17T10:38:15.913Z,12.02
2022-08-17T10:41:08.908Z,22.13
2022-08-17T10:44:38.859Z,15.38
2022-08-17T10:47:16.025Z,11.05
2022-08-17T10:49:59.115Z,10.35
2022-08-17T10:52:58.970Z,10.88
2022-08-17T10:55:41.148Z,16.23
2022-08-17T10:58:30.914Z,12.63
2022-08-17T11:01:12.767Z,12.35
2022-08-17T11:04:04.881Z,11.25
2022-08-17T11:07:10.100Z,12.82
2022-08-17T11:10:19.923Z,10.60
2022-08-17T11:13:20.863Z,16.40
2022-08-17T11:16:23.079Z,19.17
2022-08-17T11:19:39.850Z,18.23
2022-08-17T11:23:08.878Z,18.65
2022-08-17T11:26:04.086Z,14.70
2022-08-17T11:28:55.825Z,18.83
2022-08-17T11:31:54.874Z,16.98
2022-08-17T11:34:43.029Z,15.38
2022-08-17T11:37:55.846Z,21.33
2022-08-17T11:44:02.065Z,14.02
2022-08-17T11:47:16.434Z,12.75
2022-08-17T11:50:58.839Z,13.63
2022-08-17T11:54:32.273Z,19.38
2022-08-17T11:57:57.826Z,9.45
2022-08-17T12:01:02.984Z,17.48
2022-08-17T12:03:56.001Z,12.57
2022-08-17T12:06:50.208Z,18.77
2022-08-17T12:09:40.867Z,24.30
2022-08-17T12:12:29.780Z,17.13
2022-08-17T12:15:19.899Z,15.13
2022-08-17T12:18:09.770Z,18.08
2022-08-17T12:21:05.835Z,18.17
2022-08-17T12:24:03.780Z,23.55
2022-08-17T12:26:46.964Z,18.85
2022-08-17T12:29:39.149Z,19.17
2022-08-17T12:32:25.451Z,22.35
2022-08-17T12:35:27.768Z,12.30
2022-08-17T12:38:26.854Z,15.57
2022-08-17T12:41:35.759Z,24.67
2022-08-17T12:44:23.242Z,15.25
2022-08-17T12:47:21.588Z,16.60
2022-08-17T12:50:29.259Z,11.32
2022-08-17T12:53:19.829Z,17.80
2022-08-17T12:56:03.229Z,14.52
2022-08-17T12:59:00.751Z,21.42
2022-08-17T13:01:48.059Z,13.40
2022-08-17T13:04:36.692Z,13.52
2022-08-17T13:07:26.848Z,19.30
2022-08-17T13:10:08.735Z,17.58
2022-08-17T13:12:57.702Z,14.45
2022-08-17T13:15:50.224Z,12.93
2022-08-17T13:18:48.682Z,5.72
2022-08-17T13:21:38.378Z,18.15
2022-08-17T13:24:27.705Z,13.13
2022-08-17T13:27:21.732Z,13.95
2022-08-17T13:30:12.704Z,12.65
2022-08-17T13:33:04.673Z,15.13
2022-08-17T13:35:51.955Z,13.77
2022-08-17T13:38:52.768Z,15.88
2022-08-17T13:41:43.893Z,17.90
2022-08-17T13:44:38.852Z,16.02
2022-08-17T13:47:26.640Z,24.58
2022-08-17T13:50:28.645Z,7.40
2022-08-17T13:53:11.266Z,16.58
2022-08-17T13:56:01.639Z,12.63
2022-08-17T13:58:47.163Z,12.52
2022-08-17T14:01:41.685Z,17.13
2022-08-17T14:04:31.640Z,15.15
2022-08-17T14:07:38.831Z,11.93
2022-08-17T14:10:23.602Z,8.70
2022-08-17T14:13:05.695Z,16.70
2022-08-17T14:15:56.811Z,10.20
2022-08-17T14:18:56.605Z,14.45
2022-08-17T14:21:44.618Z,15.07
2022-08-17T14:24:38.949Z,13.00
2022-08-17T14:27:24.586Z,13.27
2022-08-17T14:30:14.577Z,12.20
2022-08-17T14:33:04.609Z,18.83
2022-08-17T14:35:47.315Z,18.52
2022-08-17T14:38:34.703Z,12.88
2022-08-17T14:41:23.554Z,19.77
2022-08-17T14:44:04.572Z,12.07
2022-08-17T14:46:52.958Z,12.32
2022-08-17T14:49:37.657Z,15.25
2022-08-17T14:52:27.785Z,12.45
2022-08-17T14:55:08.584Z,12.10
2022-08-17T14:57:56.812Z,12.85
2022-08-17T15:00:38.539Z,14.82
2022-08-17T15:03:26.743Z,18.85
2022-08-17T15:06:10.563Z,8.80
2022-08-17T15:08:58.738Z,12.13
2022-08-17T15:11:41.660Z,12.75
2022-08-17T15:14:29.819Z,12.80
2022-08-17T15:17:12.531Z,17.23
2022-08-17T15:20:00.733Z,18.00
2022-08-17T15:22:44.486Z,17.83
2022-08-17T15:25:34.524Z,18.65
2022-08-17T15:28:23.509Z,19.08
2022-08-17T15:31:13.620Z,13.20
2022-08-17T15:33:55.043Z,17.90
2022-08-17T15:36:49.115Z,15.65
2022-08-17T15:39:32.841Z,18.23
2022-08-17T15:42:21.464Z,14.50
2022-08-17T15:45:02.675Z,15.57
2022-08-17T15:47:50.699Z,19.60
2022-08-17T15:50:31.692Z,15.68
2022-08-17T15:53:19.488Z,11.20
2022-08-17T15:56:03.336Z,15.50
2022-08-17T15:58:54.641Z,18.73
2022-08-17T16:03:14.150Z,12.73
2022-08-17T16:04:40.214Z,13.30
2022-08-17T16:07:32.163Z,16.95
2022-08-17T16:10:18.871Z,13.80
2022-08-17T16:13:17.870Z,19.02
2022-08-17T16:16:00.466Z,16.33
2022-08-17T16:18:42.289Z,13.25
2022-08-17T16:21:42.458Z,20.13
2022-08-17T16:24:30.419Z,14.68
2022-08-17T16:27:12.759Z,21.27
2022-08-17T16:30:02.441Z,18.10
2022-08-17T16:32:43.697Z,12.07
2022-08-17T16:35:33.422Z,22.73
2022-08-17T16:38:14.636Z,16.67
2022-08-17T16:41:02.384Z,18.70
2022-08-17T16:43:45.770Z,18.33
2022-08-17T16:46:35.600Z,15.48
2022-08-17T16:49:35.425Z,17.17
2022-08-17T16:52:32.832Z,20.27
2022-08-17T16:55:17.620Z,22.38
2022-08-17T16:58:05.372Z,15.27
2022-08-17T17:00:56.438Z,17.40
2022-08-17T17:03:54.063Z,28.80
2022-08-17T17:06:46.381Z,19.10
2022-08-17T17:09:32.801Z,16.80
2022-08-17T17:12:59.515Z,17.05
2022-08-17T17:15:54.353Z,14.10
2022-08-17T17:18:50.340Z,11.90
2022-08-17T17:21:49.480Z,27.92
2022-08-17T17:24:49.964Z,19.67
2022-08-17T17:27:44.376Z,20.17
2022-08-17T17:30:37.337Z,18.42
2022-08-17T17:33:23.479Z,19.27
2022-08-17T17:36:21.401Z,15.75
2022-08-17T17:39:09.516Z,16.00
2022-08-17T17:42:01.333Z,16.58
2022-08-17T17:44:54.410Z,20.38
2022-08-17T17:47:43.581Z,19.40
2022-08-17T17:50:26.477Z,18.42
2022-08-17T17:53:26.130Z,15.20
2022-08-17T17:56:43.047Z,21.60
2022-08-17T17:59:43.913Z,11.27
2022-08-17T18:02:51.652Z,17.50
2022-08-17T18:06:04.266Z,15.93
2022-08-17T18:09:12.309Z,15.48
2022-08-17T18:12:27.273Z,18.63
2022-08-17T18:15:29.513Z,14.32
2022-08-17T18:18:44.382Z,15.80
2022-08-17T18:21:30.267Z,19.98
2022-08-17T18:24:22.242Z,20.20
2022-08-17T18:27:12.315Z,16.88
2022-08-17T18:30:07.117Z,17.38
2022-08-17T18:32:57.278Z,16.40
2022-08-17T18:35:40.456Z,20.60
2022-08-17T18:38:35.232Z,19.92
2022-08-17T18:41:30.556Z,13.90
2022-08-17T18:44:30.296Z,18.52
2022-08-17T18:47:21.532Z,17.13
2022-08-17T18:50:32.299Z,19.58
2022-08-17T18:53:41.206Z,14.82
2022-08-17T18:56:38.281Z,15.43
2022-08-17T18:59:32.509Z,16.48
2022-08-17T19:05:42.767Z,17.45
2022-08-17T19:08:41.311Z,11.70
2022-08-17T19:11:31.418Z,20.70
2022-08-17T19:14:24.268Z,16.95
2022-08-17T19:17:19.189Z,8.18
2022-08-17T19:20:15.120Z,10.10
2022-08-17T19:23:11.268Z,8.45
2022-08-17T19:26:05.825Z,12.27
2022-08-17T19:29:10.247Z,10.88
2022-08-17T19:32:02.178Z,17.95
2022-08-17T19:34:52.144Z,16.67
2022-08-17T19:37:45.429Z,16.65
2022-08-17T19:40:52.136Z,10.98
2022-08-17T19:43:57.237Z,16.55
2022-08-17T19:46:56.382Z,18.33
2022-08-17T19:50:00.578Z,14.00
2022-08-17T19:52:55.259Z,16.20
2022-08-17T19:55:55.617Z,13.25
2022-08-17T19:59:02.225Z,11.60
2022-08-17T20:01:50.379Z,14.88
2022-08-17T20:04:50.230Z,11.82
2022-08-17T20:07:51.465Z,15.43
2022-08-17T20:10:54.888Z,10.38
2022-08-17T20:13:55.134Z,14.43
2022-08-17T20:16:43.087Z,9.10
2022-08-17T20:19:31.567Z,19.48
2022-08-17T20:22:26.059Z,11.15
2022-08-17T20:25:15.486Z,14.25
2022-08-17T20:28:09.165Z,12.23
2022-08-17T20:30:51.492Z,10.30
2022-08-17T20:33:43.068Z,9.90
2022-08-17T20:36:35.174Z,16.73
2022-08-17T20:39:38.290Z,12.18
2022-08-17T20:42:38.051Z,10.57
2022-08-17T20:46:00.498Z,10.90
2022-08-17T20:48:46.598Z,12.02
2022-08-17T20:51:32.626Z,9.75
2022-08-17T20:54:38.002Z,7.65
2022-08-17T20:57:55.041Z,10.25
2022-08-17T21:00:58.182Z,8.63
2022-08-17T21:03:58.223Z,5.93
2022-08-17T21:06:38.998Z,10.43
2022-08-17T21:09:36.162Z,10.30
2022-08-17T21:12:24.001Z,6.80
2022-08-17T21:15:25.166Z,10.63
2022-08-17T21:18:21.039Z,11.40
2022-08-17T21:21:20.986Z,13.43
2022-08-17T21:24:20.968Z,7.00
2022-08-17T21:27:19.071Z,8.05
2022-08-17T21:30:44.601Z,4.78
2022-08-17T21:33:38.004Z,11.43
2022-08-17T21:36:35.286Z,9.65
2022-08-17T21:39:21.368Z,14.07
2022-08-17T21:42:13.961Z,15.88
2022-08-17T21:45:04.938Z,5.97
2022-08-17T21:47:57.956Z,9.10
2022-08-17T21:50:41.750Z,10.65
2022-08-17T21:53:34.953Z,10.50
2022-08-17T21:56:26.949Z,12.23
2022-08-17T21:59:32.143Z,11.98
2022-08-17T22:02:15.910Z,12.85
2022-08-17T22:05:09.113Z,16.85
2022-08-17T22:07:53.952Z,14.10
2022-08-17T22:10:46.253Z,9.77
2022-08-17T22:13:40.882Z,16.48
2022-08-17T22:16:29.857Z,9.70
2022-08-17T22:19:18.878Z,19.67
2022-08-17T22:22:11.890Z,8.02
2022-08-17T22:25:06.095Z,7.43
2022-08-17T22:28:03.102Z,14.45
2022-08-17T22:30:45.897Z,10.75
2022-08-17T22:33:43.086Z,12.20
2022-08-17T22:36:35.869Z,12.68
2022-08-17T22:39:48.907Z,9.77
2022-08-17T22:45:17.905Z,11.15
2022-08-17T22:48:03.091Z,7.32
2022-08-17T22:50:50.861Z,11.30
2022-08-17T22:53:56.871Z,10.70
2022-08-17T22:57:12.863Z,5.80
2022-08-17T23:00:04.010Z,13.95
2022-08-17T23:03:12.979Z,13.35
2022-08-17T23:06:15.864Z,16.20
2022-08-17T23:09:04.876Z,16.23
2022-08-17T23:11:52.048Z,15.55
2022-08-17T23:14:45.892Z,9.95
2022-08-17T23:17:48.983Z,19.10
2022-08-17T23:20:37.848Z,10.23
2022-08-17T23:23:23.694Z,9.52
2022-08-17T23:26:16.841Z,14.90
2022-08-17T23:29:04.339Z,8.05
2022-08-17T23:31:51.814Z,10.07
2022-08-17T23:34:34.009Z,11.40
2022-08-17T23:37:21.911Z,17.25
2022-08-17T23:40:09.883Z,10.88
2022-08-17T23:42:52.205Z,7.90
2022-08-17T23:45:42.825Z,10.20
2022-08-17T23:48:35.556Z,7.38
2022-08-17T23:51:21.784Z,16.40
2022-08-17T23:54:12.809Z,14.65
2022-08-17T23:56:54.076Z,9.82
2022-08-17T23:59:43.775Z,14.13
